createdAt,value
2019-01-18T00:03:18.232Z,99536.91
2019-01-18T00:05:46.204Z,99536.91
2019-01-18T00:08:13.855Z,99538.91
2019-01-18T00:10:41.573Z,99535.45
2019-01-18T00:13:09.189Z,99530.34
2019-01-18T00:15:37.242Z,99536.69
2019-01-18T00:18:04.829Z,99542.87
2019-01-18T00:20:32.637Z,99550.81
2019-01-18T00:23:00.233Z,99556.05
2019-01-18T00:25:28.298Z,99555.06
2019-01-18T00:27:56.460Z,99562.38
2019-01-18T00:30:26.779Z,99563.14
2019-01-18T00:32:54.323Z,99572.33
2019-01-18T00:35:40.850Z,99566.08
2019-01-18T00:38:08.527Z,99579.59
2019-01-18T00:40:36.597Z,99580.52
2019-01-18T00:43:04.260Z,99580.52
2019-01-18T00:45:32.275Z,99587.63
2019-01-18T00:47:59.999Z,99593.27
2019-01-18T00:50:27.606Z,99593.27
2019-01-18T00:52:55.241Z,99592.63
2019-01-18T00:55:41.692Z,99597.73
2019-01-18T00:58:09.266Z,99605.16
2019-01-18T01:00:36.945Z,99605.54
2019-01-18T01:03:23.337Z,99600.73
2019-01-18T01:05:51.040Z,99620.20
2019-01-18T01:08:21.220Z,99620.20
2019-01-18T01:11:07.687Z,99622.04
2019-01-18T01:13:35.351Z,99633.84
2019-01-18T01:16:05.062Z,99633.84
2019-01-18T01:18:32.849Z,99634.61
2019-01-18T01:23:47.392Z,99653.14
2019-01-18T01:26:15.404Z,99668.12
2019-01-18T01:31:48.527Z,99672.98
2019-01-18T01:34:16.230Z,99672.98
2019-01-18T01:36:43.935Z,99681.40
2019-01-18T01:39:12.351Z,99681.40
2019-01-18T01:41:42.149Z,99686.10
2019-01-18T01:44:36.027Z,99702.58
2019-01-18T01:47:03.666Z,99703.60
2019-01-18T01:49:31.745Z,99711.05
2019-01-18T01:51:59.428Z,99711.05
2019-01-18T01:54:27.490Z,99724.33
2019-01-18T01:57:14.283Z,99733.28
2019-01-18T01:59:41.971Z,99733.28
2019-01-18T02:02:09.681Z,99740.95
2019-01-18T02:04:37.288Z,99751.44
2019-01-18T02:07:23.840Z,99751.44
2019-01-18T02:10:10.306Z,99753.85
2019-01-18T02:12:38.008Z,99763.45
2019-01-18T02:15:05.981Z,99762.52
2019-01-18T02:17:33.604Z,99769.47
2019-01-18T02:20:01.316Z,99769.47
2019-01-18T02:22:48.049Z,99778.33
2019-01-18T02:25:15.689Z,99778.33
2019-01-18T02:27:43.496Z,99782.70
2019-01-18T02:30:11.075Z,99786.25
2019-01-18T02:32:39.559Z,99790.07
2019-01-18T02:35:26.054Z,99789.98
2019-01-18T02:37:53.739Z,99800.35
2019-01-18T02:40:40.123Z,99800.35
2019-01-18T02:43:07.784Z,99806.75
2019-01-18T02:45:35.579Z,99806.31
2019-01-18T02:48:03.584Z,99804.91
2019-01-18T02:50:31.204Z,99804.91
2019-01-18T02:52:58.862Z,99820.14
2019-01-18T02:55:29.005Z,99826.70
2019-01-18T02:57:55.728Z,99830.64
2019-01-18T03:00:23.455Z,99828.52
2019-01-18T03:03:10.261Z,99837.20
2019-01-18T03:05:37.955Z,99837.20
2019-01-18T03:08:05.635Z,99838.51
2019-01-18T03:10:33.333Z,99849.84
2019-01-18T03:13:19.729Z,99853.77
2019-01-18T03:15:47.404Z,99854.64
2019-01-18T03:18:15.025Z,99859.50
2019-01-18T03:20:42.962Z,99865.25
2019-01-18T03:23:10.672Z,99865.25
2019-01-18T03:25:57.436Z,99880.40
2019-01-18T03:28:25.111Z,99884.22
2019-01-18T03:30:52.742Z,99886.69
2019-01-18T03:33:20.453Z,99895.81
2019-01-18T03:35:48.469Z,99891.82
2019-01-18T03:38:16.050Z,99899.94
2019-01-18T03:40:43.749Z,99899.94
2019-01-18T03:43:11.845Z,99899.39
2019-01-18T03:45:39.941Z,99907.27
2019-01-18T03:48:07.659Z,99909.89
2019-01-18T03:50:35.265Z,99914.31
2019-01-18T03:53:03.113Z,99928.69
2019-01-18T03:55:31.174Z,99928.69
2019-01-18T03:57:58.993Z,99933.40
2019-01-18T04:00:26.856Z,99939.24
2019-01-18T04:02:56.235Z,99945.92
2019-01-18T04:05:42.749Z,99949.68
2019-01-18T04:08:10.911Z,99949.98
2019-01-18T04:10:57.432Z,99955.70
2019-01-18T04:13:43.907Z,99963.20
2019-01-18T04:16:11.854Z,99963.20
2019-01-18T04:18:39.596Z,99968.35
2019-01-18T04:21:07.311Z,99970.68
2019-01-18T04:23:35.011Z,99966.61
2019-01-18T04:26:03.128Z,99962.70
2019-01-18T04:28:31.730Z,99962.70
2019-01-18T04:30:59.391Z,99966.02
2019-01-18T04:33:46.359Z,99980.00
2019-01-18T04:36:32.741Z,99979.31
2019-01-18T04:39:00.481Z,99979.31
2019-01-18T04:41:47.012Z,99980.73
2019-01-18T04:44:14.738Z,99987.73
2019-01-18T04:46:42.399Z,99980.77
2019-01-18T04:49:28.903Z,99978.94
2019-01-18T04:51:59.200Z,99985.83
2019-01-18T04:54:26.955Z,99985.83
2019-01-18T04:56:54.993Z,99985.09
2019-01-18T04:59:22.615Z,99983.95
2019-01-18T05:01:50.829Z,99983.09
2019-01-18T05:04:18.668Z,99984.01
2019-01-18T05:07:05.164Z,99984.01
2019-01-18T05:09:35.439Z,99990.28
2019-01-18T05:12:03.420Z,99995.73
2019-01-18T05:17:36.253Z,99992.49
2019-01-18T05:20:22.789Z,100000.34
2019-01-18T05:22:50.848Z,100003.40
2019-01-18T05:25:18.518Z,100009.50
2019-01-18T05:27:46.199Z,100010.81
2019-01-18T05:30:14.239Z,100010.81
2019-01-18T05:32:41.888Z,100020.84
2019-01-18T05:35:09.597Z,100020.84
2019-01-18T05:37:37.561Z,100025.29
2019-01-18T05:40:05.264Z,100027.95
2019-01-18T05:42:32.948Z,100035.01
2019-01-18T05:45:19.456Z,100032.04
2019-01-18T05:47:47.168Z,100040.76
2019-01-18T05:50:15.113Z,100040.76
2019-01-18T05:52:44.646Z,100048.81
2019-01-18T05:57:49.758Z,100065.23
2019-01-18T06:00:19.178Z,100065.70
2019-01-18T06:02:49.866Z,100065.70
2019-01-18T06:05:18.586Z,100067.05
2019-01-18T06:07:46.306Z,100077.11
2019-01-18T06:10:13.952Z,100077.11
2019-01-18T06:12:41.974Z,100078.86
2019-01-18T06:15:09.683Z,100079.77
2019-01-18T06:17:41.459Z,100088.88
2019-01-18T06:20:11.342Z,100088.88
2019-01-18T06:22:39.003Z,100092.29
2019-01-18T06:25:06.696Z,100091.02
2019-01-18T06:27:35.104Z,100092.96
2019-01-18T06:30:02.907Z,100096.92
2019-01-18T06:32:33.150Z,100091.37
2019-01-18T06:35:01.211Z,100094.91
2019-01-18T06:37:30.282Z,100103.70
2019-01-18T06:39:57.918Z,100103.70
2019-01-18T06:42:26.000Z,100106.11
2019-01-18T06:44:53.670Z,100106.11
2019-01-18T06:47:25.085Z,100114.50
2019-01-18T06:49:52.667Z,100117.27
2019-01-18T06:52:20.467Z,100117.81
2019-01-18T06:54:48.133Z,100117.81
2019-01-18T06:57:15.866Z,100117.89
2019-01-18T06:59:43.657Z,100124.35
2019-01-18T07:02:12.071Z,100128.42
2019-01-18T07:04:41.469Z,100128.42
2019-01-18T07:07:09.066Z,100139.93
2019-01-18T07:09:37.241Z,100141.34
2019-01-18T07:12:04.962Z,100150.89
2019-01-18T07:14:32.680Z,100160.95
2019-01-18T07:17:00.779Z,100167.95
2019-01-18T07:19:47.320Z,100171.98
2019-01-18T07:22:15.330Z,100171.98
2019-01-18T07:24:43.066Z,100183.16
2019-01-18T07:27:10.861Z,100181.35
2019-01-18T07:29:39.023Z,100189.08
2019-01-18T07:32:06.755Z,100182.98
2019-01-18T07:34:34.488Z,100188.61
2019-01-18T07:37:02.575Z,100189.05
2019-01-18T07:39:30.258Z,100196.85
2019-01-18T07:41:57.900Z,100198.96
2019-01-18T07:44:27.132Z,100203.28
2019-01-18T07:46:57.266Z,100203.28
2019-01-18T07:49:24.965Z,100206.37
2019-01-18T07:51:53.069Z,100217.63
2019-01-18T07:54:20.811Z,100217.63
2019-01-18T07:56:50.175Z,100218.97
2019-01-18T07:59:18.471Z,100223.28
2019-01-18T08:01:46.186Z,100223.69
2019-01-18T08:04:13.853Z,100223.69
2019-01-18T08:06:44.570Z,100225.36
2019-01-18T08:09:14.616Z,100225.36
2019-01-18T08:11:42.755Z,100223.08
2019-01-18T08:14:10.832Z,100223.08
2019-01-18T08:16:38.547Z,100229.87
2019-01-18T08:19:06.193Z,100227.62
2019-01-18T08:21:33.908Z,100236.73
2019-01-18T08:24:03.289Z,100237.97
2019-01-18T08:26:52.776Z,100239.12
2019-01-18T08:29:24.909Z,100242.07
2019-01-18T08:31:55.805Z,100250.53
2019-01-18T08:34:25.143Z,100250.53
2019-01-18T08:36:54.579Z,100251.22
2019-01-18T08:39:22.783Z,100248.60
2019-01-18T08:41:52.974Z,100248.60
2019-01-18T08:44:20.610Z,100252.64
2019-01-18T08:46:48.767Z,100247.00
2019-01-18T08:49:16.469Z,100249.85
2019-01-18T08:51:44.157Z,100249.85
2019-01-18T08:54:15.405Z,100248.95
2019-01-18T08:56:43.075Z,100249.59
2019-01-18T08:59:11.258Z,100254.34
2019-01-18T09:01:39.386Z,100254.34
2019-01-18T09:04:09.109Z,100260.44
2019-01-18T09:06:36.458Z,100259.97
2019-01-18T09:09:07.247Z,100261.63
2019-01-18T09:11:35.422Z,100272.81
2019-01-18T09:14:08.974Z,100265.44
2019-01-18T09:16:38.328Z,100265.44
2019-01-18T09:19:08.041Z,100262.46
2019-01-18T09:21:35.699Z,100278.63
2019-01-18T09:24:22.215Z,100278.63
2019-01-18T09:26:55.426Z,100283.95
2019-01-18T09:29:23.172Z,100282.55
2019-01-18T09:31:52.607Z,100291.61
2019-01-18T09:34:20.322Z,100291.61
2019-01-18T09:36:48.433Z,100293.97
2019-01-18T09:39:16.193Z,100297.20
2019-01-18T09:41:44.202Z,100297.20
2019-01-18T09:44:12.672Z,100296.73
2019-01-18T09:46:40.419Z,100296.73
2019-01-18T09:49:09.073Z,100295.20
2019-01-18T09:51:38.290Z,100300.57
2019-01-18T09:54:06.703Z,100304.09
2019-01-18T09:56:34.477Z,100304.09
2019-01-18T09:59:07.295Z,100298.74
2019-01-18T10:01:37.790Z,100299.44
2019-01-18T10:04:05.489Z,100299.86
2019-01-18T10:06:53.120Z,100305.18
2019-01-18T10:09:22.446Z,100301.80
2019-01-18T10:11:54.074Z,100301.80
2019-01-18T10:14:22.235Z,100290.59
2019-01-18T10:16:50.659Z,100286.25
2019-01-18T10:19:18.725Z,100286.25
2019-01-18T10:21:46.712Z,100275.36
2019-01-18T10:24:14.415Z,100262.17
2019-01-18T10:26:43.782Z,100262.17
2019-01-18T10:29:11.583Z,100262.92
2019-01-18T10:31:39.907Z,100262.55
2019-01-18T10:34:07.844Z,100258.73
2019-01-18T10:39:16.203Z,100260.58
2019-01-18T10:41:43.933Z,100259.81
2019-01-18T10:44:11.616Z,100257.08
2019-01-18T10:46:50.318Z,100257.08
2019-01-18T10:49:18.043Z,100259.09
2019-01-18T10:51:51.855Z,100267.53
2019-01-18T10:54:19.265Z,100257.50
2019-01-18T10:56:55.288Z,100264.06
2019-01-18T10:59:25.341Z,100262.91
2019-01-18T11:01:59.601Z,100262.91
2019-01-18T11:04:22.472Z,100268.02
2019-01-18T11:06:50.565Z,100271.45
2019-01-18T11:09:18.332Z,100270.12
2019-01-18T11:11:47.050Z,100273.26
2019-01-18T11:14:15.093Z,100273.26
2019-01-18T11:16:42.805Z,100281.28
2019-01-18T11:19:13.697Z,100281.28
2019-01-18T11:21:42.487Z,100282.86
2019-01-18T11:24:10.299Z,100282.85
2019-01-18T11:26:38.038Z,100279.59
2019-01-18T11:29:06.045Z,100283.12
2019-01-18T11:31:34.258Z,100283.84
2019-01-18T11:34:02.725Z,100283.45
2019-01-18T11:36:32.693Z,100283.45
2019-01-18T11:39:00.464Z,100287.06
2019-01-18T11:41:30.974Z,100287.22
2019-01-18T11:43:59.268Z,100288.25
2019-01-18T11:46:27.859Z,100288.17
2019-01-18T11:48:59.718Z,100288.83
2019-01-18T11:51:27.893Z,100288.83
2019-01-18T11:53:55.624Z,100289.05
2019-01-18T11:56:26.007Z,100289.05
2019-01-18T11:58:54.194Z,100287.47
2019-01-18T12:01:23.102Z,100279.10
2019-01-18T12:03:53.700Z,100279.10
2019-01-18T12:06:23.661Z,100286.39
2019-01-18T12:08:51.461Z,100285.14
2019-01-18T12:11:21.913Z,100285.14
2019-01-18T12:13:52.479Z,100298.25
2019-01-18T12:16:20.172Z,100308.37
2019-01-18T12:18:49.056Z,100308.37
2019-01-18T12:21:18.875Z,100314.16
2019-01-18T12:23:47.080Z,100314.70
2019-01-18T12:26:15.869Z,100314.87
2019-01-18T12:28:44.016Z,100312.56
2019-01-18T12:31:18.809Z,100308.48
2019-01-18T12:33:46.437Z,100311.91
2019-01-18T12:36:14.480Z,100307.66
2019-01-18T12:38:42.620Z,100299.59
2019-01-18T12:41:13.301Z,100299.59
2019-01-18T12:43:41.374Z,100283.67
2019-01-18T12:46:10.217Z,100286.92
2019-01-18T12:48:38.775Z,100281.19
2019-01-18T12:51:06.761Z,100281.19
2019-01-18T12:53:34.423Z,100272.91
2019-01-18T12:56:02.234Z,100264.42
2019-01-18T12:58:30.335Z,100264.42
2019-01-18T13:01:00.136Z,100278.33
2019-01-18T13:03:27.795Z,100278.67
2019-01-18T13:05:57.893Z,100278.67
2019-01-18T13:08:25.580Z,100275.16
2019-01-18T13:10:53.330Z,100272.91
2019-01-18T13:13:21.490Z,100274.01
2019-01-18T13:15:49.252Z,100267.39
2019-01-18T13:18:19.316Z,100267.39
2019-01-18T13:20:47.349Z,100262.58
2019-01-18T13:23:15.276Z,100261.63
2019-01-18T13:25:54.679Z,100264.73
2019-01-18T13:28:25.844Z,100264.73
2019-01-18T13:30:53.477Z,100255.84
2019-01-18T13:33:22.848Z,100255.84
2019-01-18T13:35:51.174Z,100260.32
2019-01-18T13:38:18.890Z,100260.87
2019-01-18T13:40:46.562Z,100259.55
2019-01-18T13:43:14.703Z,100258.89
2019-01-18T13:45:43.473Z,100258.89
2019-01-18T13:48:11.179Z,100252.66
2019-01-18T13:50:39.310Z,100255.46
2019-01-18T13:53:07.764Z,100253.81
2019-01-18T13:55:37.394Z,100259.34
2019-01-18T13:58:05.371Z,100259.34
2019-01-18T14:00:36.067Z,100265.05
2019-01-18T14:03:03.868Z,100268.36
2019-01-18T14:05:33.725Z,100268.05
2019-01-18T14:08:01.943Z,100268.81
2019-01-18T14:10:29.629Z,100269.69
2019-01-18T14:12:57.729Z,100269.69
2019-01-18T14:15:26.137Z,100270.89
2019-01-18T14:17:53.827Z,100273.80
2019-01-18T14:20:25.674Z,100274.48
2019-01-18T14:22:53.393Z,100274.48
2019-01-18T14:25:21.110Z,100268.89
2019-01-18T14:27:49.253Z,100274.86
2019-01-18T14:30:16.967Z,100274.10
2019-01-18T14:32:47.059Z,100274.10
2019-01-18T14:35:15.139Z,100278.44
2019-01-18T14:37:42.895Z,100277.98
2019-01-18T14:40:10.526Z,100280.68
2019-01-18T14:42:38.748Z,100289.09
2019-01-18T14:45:08.982Z,100278.94
2019-01-18T14:47:36.712Z,100284.03
2019-01-18T14:50:04.790Z,100291.56
2019-01-18T14:52:32.978Z,100291.56
2019-01-18T14:55:03.032Z,100291.98
2019-01-18T14:57:36.455Z,100295.43
2019-01-18T15:00:05.181Z,100299.98
2019-01-18T15:02:32.911Z,100300.95
2019-01-18T15:05:05.193Z,100300.95
2019-01-18T15:07:31.523Z,100315.86
2019-01-18T15:09:59.245Z,100309.60
2019-01-18T15:12:27.380Z,100309.60
2019-01-18T15:14:58.010Z,100317.57
2019-01-18T15:17:25.766Z,100312.89
2019-01-18T15:19:54.361Z,100315.61
2019-01-18T15:22:22.355Z,100315.61
2019-01-18T15:24:50.130Z,100317.86
2019-01-18T15:27:22.067Z,100319.19
2019-01-18T15:29:52.015Z,100307.39
2019-01-18T15:32:19.648Z,100307.39
2019-01-18T15:34:47.585Z,100308.81
2019-01-18T15:37:15.355Z,100303.98
2019-01-18T15:39:43.056Z,100306.13
2019-01-18T15:42:11.441Z,100303.88
2019-01-18T15:44:42.128Z,100305.95
2019-01-18T15:47:09.796Z,100302.05
2019-01-18T15:49:38.017Z,100306.22
2019-01-18T15:52:06.117Z,100306.22
2019-01-18T15:54:33.825Z,100311.83
2019-01-18T15:57:03.372Z,100311.41
2019-01-18T15:59:31.053Z,100311.41
2019-01-18T16:01:58.780Z,100320.52
2019-01-18T16:04:33.769Z,100316.84
2019-01-18T16:07:01.516Z,100318.98
2019-01-18T16:09:38.794Z,100318.76
2019-01-18T16:12:16.278Z,100323.78
2019-01-18T16:14:44.434Z,100325.66
2019-01-18T16:17:15.417Z,100325.66
2019-01-18T16:19:48.307Z,100327.39
2019-01-18T16:22:16.451Z,100332.48
2019-01-18T16:24:44.660Z,100327.41
2019-01-18T16:27:12.380Z,100335.39
2019-01-18T16:29:41.919Z,100330.31
2019-01-18T16:32:09.742Z,100323.05
2019-01-18T16:34:37.509Z,100323.05
2019-01-18T16:37:05.697Z,100332.89
2019-01-18T16:39:33.718Z,100334.20
2019-01-18T16:42:01.369Z,100332.70
2019-01-18T16:44:30.748Z,100328.52
2019-01-18T16:46:58.382Z,100333.16
2019-01-18T16:49:26.190Z,100333.16
2019-01-18T16:51:55.618Z,100329.73
2019-01-18T16:54:23.276Z,100326.90
2019-01-18T16:56:53.455Z,100337.16
2019-01-18T16:59:21.535Z,100323.78
2019-01-18T17:01:49.356Z,100327.27
2019-01-18T17:04:17.284Z,100335.63
2019-01-18T17:06:45.510Z,100330.55
2019-01-18T17:09:13.556Z,100330.55
2019-01-18T17:11:41.213Z,100326.44
2019-01-18T17:14:09.221Z,100327.86
2019-01-18T17:16:36.860Z,100328.44
2019-01-18T17:21:39.136Z,100330.25
2019-01-18T17:24:06.884Z,100334.13
2019-01-18T17:26:34.655Z,100334.13
2019-01-18T17:29:21.147Z,100331.36
2019-01-18T17:31:56.633Z,100322.78
2019-01-18T17:34:25.110Z,100322.78
2019-01-18T17:36:52.746Z,100329.86
2019-01-18T17:39:39.261Z,100322.86
2019-01-18T17:42:07.021Z,100320.41
2019-01-18T17:44:37.289Z,100325.78
2019-01-18T17:47:23.789Z,100328.99
2019-01-18T17:49:54.447Z,100325.20
2019-01-18T17:52:22.455Z,100329.99
2019-01-18T17:54:50.188Z,100321.81
2019-01-18T17:57:21.125Z,100322.28
2019-01-18T17:59:49.221Z,100322.28
2019-01-18T18:02:17.325Z,100321.17
2019-01-18T18:04:45.414Z,100327.27
2019-01-18T18:07:13.483Z,100327.37
2019-01-18T18:12:31.804Z,100323.95
2019-01-18T18:14:59.534Z,100322.30
2019-01-18T18:17:46.280Z,100322.30
2019-01-18T18:20:14.032Z,100318.55
2019-01-18T18:22:41.757Z,100318.55
2019-01-18T18:25:11.444Z,100320.88
2019-01-18T18:27:39.209Z,100320.88
2019-01-18T18:30:11.699Z,100320.60
2019-01-18T18:32:41.661Z,100320.60
2019-01-18T18:35:12.831Z,100317.21
2019-01-18T18:37:40.564Z,100317.21
2019-01-18T18:40:10.717Z,100318.61
2019-01-18T18:42:38.396Z,100319.08
2019-01-18T18:50:15.432Z,100315.03
2019-01-18T18:55:29.777Z,100312.91
2019-01-18T18:57:57.470Z,100315.09
2019-01-18T19:00:31.168Z,100315.09
2019-01-18T19:02:59.422Z,100321.53
2019-01-18T19:05:30.101Z,100318.52
2019-01-18T19:10:34.329Z,100308.09
2019-01-18T19:13:21.540Z,100311.58
2019-01-18T19:15:59.678Z,100311.58
2019-01-18T19:18:09.581Z,100301.52
2019-01-18T19:20:56.071Z,100305.42
2019-01-18T19:23:42.939Z,100303.25
2019-01-18T19:29:01.751Z,100304.58
2019-01-18T19:31:29.399Z,100292.95
2019-01-18T19:33:57.209Z,100292.95
2019-01-18T19:36:43.724Z,100304.20
2019-01-18T19:42:16.094Z,100304.70
2019-01-18T19:44:33.903Z,100302.09
2019-01-18T19:47:01.692Z,100302.09
2019-01-18T19:49:29.421Z,100299.61
2019-01-18T19:52:13.000Z,100299.61
2019-01-18T19:54:29.863Z,100304.42
2019-01-18T19:56:57.605Z,100303.12
2019-01-18T19:59:25.350Z,100310.55
2019-01-18T20:01:53.430Z,100310.55
2019-01-18T20:04:21.192Z,100310.08
2019-01-18T20:06:49.726Z,100312.69
2019-01-18T20:09:17.719Z,100312.66
2019-01-18T20:11:54.724Z,100311.36
2019-01-18T20:14:22.821Z,100311.36
2019-01-18T20:17:07.991Z,100311.83
2019-01-18T20:22:01.271Z,100317.97
2019-01-18T20:24:34.183Z,100317.97
2019-01-18T20:27:06.678Z,100318.69
2019-01-18T20:29:53.238Z,100316.55
2019-01-18T20:32:23.202Z,100316.55
2019-01-18T20:35:09.712Z,100315.64
2019-01-18T20:40:44.234Z,100314.84
2019-01-18T20:43:13.926Z,100316.55
2019-01-18T20:45:41.913Z,100314.75
2019-01-18T20:48:28.422Z,100312.95
2019-01-18T20:51:17.284Z,100312.95
2019-01-18T20:54:06.159Z,100311.73
2019-01-18T20:56:52.695Z,100315.15
2019-01-18T20:59:20.337Z,100303.03
2019-01-18T21:01:49.035Z,100303.03
2019-01-18T21:04:35.522Z,100312.91
2019-01-18T21:09:54.483Z,100310.73
2019-01-18T21:12:25.101Z,100311.11
2019-01-18T21:14:52.752Z,100304.55
2019-01-18T21:20:16.173Z,100303.16
2019-01-18T21:25:38.633Z,100306.55
2019-01-18T21:28:08.042Z,100306.55
2019-01-18T21:30:54.574Z,100309.38
2019-01-18T21:33:25.201Z,100309.38
2019-01-18T21:35:55.708Z,100311.43
2019-01-18T21:38:28.012Z,100311.43
2019-01-18T21:40:58.231Z,100303.93
2019-01-18T21:43:44.749Z,100306.55
2019-01-18T21:46:12.476Z,100301.78
2019-01-18T21:48:47.370Z,100302.63
2019-01-18T21:51:15.105Z,100304.83
2019-01-18T21:53:45.021Z,100304.83
2019-01-18T21:56:31.534Z,100299.61
2019-01-18T21:59:18.054Z,100299.67
2019-01-18T22:02:06.225Z,100306.77
2019-01-18T22:07:17.166Z,100296.56
2019-01-18T22:09:47.239Z,100299.45
2019-01-18T22:12:22.206Z,100299.45
2019-01-18T22:15:08.728Z,100303.87
2019-01-18T22:17:57.460Z,100310.52
2019-01-18T22:20:57.268Z,100310.52
2019-01-18T22:26:07.488Z,100307.21
2019-01-18T22:28:35.230Z,100304.00
2019-01-18T22:33:52.803Z,100316.27
2019-01-18T22:36:20.529Z,100308.88
2019-01-18T22:39:30.052Z,100308.88
2019-01-18T22:44:06.737Z,100313.16
2019-01-18T22:46:34.688Z,100309.83
2019-01-18T22:49:02.427Z,100307.91
2019-01-18T22:51:48.933Z,100307.72
2019-01-18T22:54:36.580Z,100305.95
2019-01-18T22:57:23.386Z,100305.61
2019-01-18T23:02:23.562Z,100299.73
2019-01-18T23:04:55.485Z,100299.73
2019-01-18T23:07:23.220Z,100307.59
2019-01-18T23:09:50.894Z,100310.67
2019-01-18T23:12:18.634Z,100308.95
2019-01-18T23:15:05.092Z,100299.50
2019-01-18T23:17:32.840Z,100297.79
2019-01-18T23:20:12.341Z,100299.59
2019-01-18T23:22:48.718Z,100299.59
2019-01-18T23:28:05.510Z,100295.44
2019-01-18T23:30:33.448Z,100295.44
2019-01-18T23:33:01.186Z,100300.41
2019-01-18T23:35:28.862Z,100300.41
2019-01-18T23:37:56.911Z,100298.75
2019-01-18T23:40:24.580Z,100297.07
2019-01-18T23:42:52.498Z,100295.30
2019-01-18T23:45:20.138Z,100295.30
2019-01-18T23:47:48.586Z,100293.19
2019-01-18T23:55:30.511Z,100290.80
2019-01-18T23:58:12.027Z,100289.52
